createdAt,value
2023-05-09T00:00:50.483Z,41.15
2023-05-09T00:03:19.243Z,36.17
2023-05-09T00:06:10.991Z,39.05
2023-05-09T00:08:38.657Z,39.42
2023-05-09T00:11:06.321Z,39.75
2023-05-09T00:13:38.985Z,33.60
2023-05-09T00:16:06.790Z,39.67
2023-05-09T00:18:38.034Z,32.90
2023-05-09T00:21:24.387Z,38.75
2023-05-09T00:23:58.092Z,32.42
2023-05-09T00:26:26.376Z,37.85
2023-05-09T00:28:56.310Z,38.92
2023-05-09T00:31:26.146Z,39.83
2023-05-09T00:33:54.888Z,51.38
2023-05-09T00:36:26.121Z,40.55
2023-05-09T00:39:02.627Z,40.88
2023-05-09T00:41:31.135Z,35.83
2023-05-09T00:44:00.190Z,37.10
2023-05-09T00:46:30.480Z,34.05
2023-05-09T00:48:58.226Z,41.72
2023-05-09T00:51:37.266Z,46.08
2023-05-09T00:54:07.645Z,39.28
2023-05-09T00:56:55.969Z,45.55
2023-05-09T00:59:32.278Z,39.75
2023-05-09T01:02:10.998Z,46.78
2023-05-09T01:04:38.862Z,39.13
2023-05-09T01:07:34.874Z,39.55
2023-05-09T01:10:08.688Z,38.40
2023-05-09T01:12:52.720Z,45.03
2023-05-09T01:15:39.216Z,43.25
2023-05-09T01:18:14.398Z,46.55
2023-05-09T01:20:52.513Z,47.97
2023-05-09T01:23:32.220Z,43.17
2023-05-09T01:26:08.565Z,43.90
2023-05-09T01:28:45.142Z,42.42
2023-05-09T01:31:15.754Z,46.08
2023-05-09T01:33:45.007Z,46.13
2023-05-09T01:36:19.606Z,51.30
2023-05-09T01:38:53.157Z,50.13
2023-05-09T01:43:59.870Z,44.42
2023-05-09T01:46:30.631Z,47.03
2023-05-09T01:48:58.651Z,47.78
2023-05-09T01:51:28.275Z,56.25
2023-05-09T01:54:06.365Z,49.08
2023-05-09T01:56:36.345Z,52.13
2023-05-09T01:59:16.231Z,45.85
2023-05-09T02:01:45.795Z,49.15
2023-05-09T02:04:17.506Z,47.63
2023-05-09T02:06:45.278Z,48.95
2023-05-09T02:09:15.609Z,50.17
2023-05-09T02:11:51.183Z,51.83
2023-05-09T02:14:18.767Z,48.72
2023-05-09T02:16:56.866Z,46.72
2023-05-09T02:19:25.010Z,51.47
2023-05-09T02:21:53.967Z,52.03
2023-05-09T02:24:21.630Z,52.72
2023-05-09T02:26:49.405Z,54.30
2023-05-09T02:29:21.903Z,53.13
2023-05-09T02:31:50.761Z,49.33
2023-05-09T02:34:19.918Z,51.85
2023-05-09T02:36:47.632Z,51.28
2023-05-09T02:39:17.472Z,52.50
2023-05-09T02:41:51.993Z,49.47
2023-05-09T02:44:19.461Z,50.67
2023-05-09T02:46:46.971Z,56.13
2023-05-09T02:49:31.582Z,51.03
2023-05-09T02:52:10.879Z,52.95
2023-05-09T02:54:38.902Z,47.80
2023-05-09T02:57:15.667Z,60.40
2023-05-09T02:59:46.372Z,53.33
2023-05-09T03:02:20.283Z,53.70
2023-05-09T03:04:48.326Z,55.50
2023-05-09T03:07:33.636Z,60.17
2023-05-09T03:10:22.487Z,58.45
2023-05-09T03:12:55.417Z,55.25
2023-05-09T03:15:23.284Z,58.95
2023-05-09T03:18:01.924Z,63.58
2023-05-09T03:20:32.128Z,61.05
2023-05-09T03:23:10.195Z,68.50
2023-05-09T03:25:38.217Z,59.53
2023-05-09T03:28:09.159Z,64.50
2023-05-09T03:30:40.398Z,64.53
2023-05-09T03:33:25.136Z,83.07
2023-05-09T03:35:53.864Z,68.32
2023-05-09T03:38:32.015Z,67.85
2023-05-09T03:40:59.750Z,77.38
2023-05-09T03:43:27.643Z,73.45
2023-05-09T03:45:59.568Z,70.13
2023-05-09T03:48:27.887Z,68.40
2023-05-09T03:50:57.082Z,71.72
2023-05-09T03:53:36.379Z,85.28
2023-05-09T03:56:05.993Z,64.57
2023-05-09T03:58:44.280Z,72.80
2023-05-09T04:04:16.663Z,77.38
2023-05-09T04:06:54.898Z,70.88
2023-05-09T04:09:35.284Z,71.72
2023-05-09T04:12:04.364Z,70.90
2023-05-09T04:14:43.403Z,68.13
2023-05-09T04:17:17.192Z,85.40
2023-05-09T04:19:51.101Z,74.70
2023-05-09T04:22:18.732Z,78.35
2023-05-09T04:24:56.352Z,81.00
2023-05-09T04:27:24.080Z,76.63
2023-05-09T04:30:02.922Z,86.57
2023-05-09T04:32:30.711Z,81.10
2023-05-09T04:34:59.801Z,82.00
2023-05-09T04:37:33.000Z,85.28
2023-05-09T04:40:05.343Z,77.72
2023-05-09T04:42:40.713Z,93.45
2023-05-09T04:45:09.507Z,83.97
2023-05-09T04:47:37.197Z,79.45
2023-05-09T04:50:09.222Z,91.53
2023-05-09T04:52:37.151Z,93.68
2023-05-09T04:55:05.478Z,88.22
2023-05-09T04:57:38.747Z,87.18
2023-05-09T05:00:08.014Z,88.90
2023-05-09T05:02:36.957Z,87.57
2023-05-09T05:05:17.522Z,87.68
2023-05-09T05:07:45.572Z,96.97
2023-05-09T05:10:19.071Z,102.88
2023-05-09T05:12:51.336Z,88.13
2023-05-09T05:15:21.882Z,95.85
2023-05-09T05:17:49.774Z,103.55
2023-05-09T05:20:22.947Z,91.68
2023-05-09T05:22:59.531Z,86.78
2023-05-09T05:25:28.762Z,92.93
2023-05-09T05:28:18.088Z,86.88
2023-05-09T05:30:55.308Z,101.10
2023-05-09T05:33:24.895Z,101.75
2023-05-09T05:35:55.974Z,96.93
2023-05-09T05:38:27.099Z,93.57
2023-05-09T05:40:59.878Z,104.85
2023-05-09T05:43:28.625Z,102.40
2023-05-09T05:45:56.476Z,111.93
2023-05-09T05:48:39.827Z,100.78
2023-05-09T05:51:07.501Z,114.93
2023-05-09T05:53:46.220Z,105.13
2023-05-09T05:56:15.488Z,112.30
2023-05-09T05:58:51.929Z,106.63
2023-05-09T06:01:21.278Z,104.85
2023-05-09T06:03:54.669Z,107.53
2023-05-09T06:06:29.856Z,107.00
2023-05-09T06:08:57.660Z,112.25
2023-05-09T06:11:25.763Z,104.03
2023-05-09T06:13:56.019Z,107.05
2023-05-09T06:16:28.210Z,99.22
2023-05-09T06:18:58.326Z,114.18
2023-05-09T06:21:27.161Z,106.60
2023-05-09T06:24:11.677Z,102.60
2023-05-09T06:26:48.611Z,109.35
2023-05-09T06:32:05.803Z,103.82
2023-05-09T06:34:42.325Z,113.50
2023-05-09T06:37:09.981Z,113.43
2023-05-09T06:39:45.086Z,106.35
2023-05-09T06:42:12.557Z,103.32
2023-05-09T06:44:49.113Z,106.82
2023-05-09T06:47:18.917Z,104.53
2023-05-09T06:49:48.471Z,101.55
2023-05-09T06:52:30.483Z,104.43
2023-05-09T06:55:18.297Z,95.18
2023-05-09T06:59:04.394Z,94.28
2023-05-09T07:01:10.556Z,94.22
2023-05-09T07:03:41.886Z,92.40
2023-05-09T07:06:24.361Z,101.85
2023-05-09T07:08:55.512Z,100.70
2023-05-09T07:11:40.867Z,98.00
2023-05-09T07:14:15.002Z,95.45
2023-05-09T07:16:45.175Z,89.80
2023-05-09T07:19:23.251Z,95.40
2023-05-09T07:21:51.006Z,93.18
2023-05-09T07:24:20.579Z,90.88
2023-05-09T07:26:55.017Z,88.78
2023-05-09T07:29:22.626Z,91.10
2023-05-09T07:31:54.141Z,88.05
2023-05-09T07:34:25.176Z,94.35
2023-05-09T07:37:03.242Z,88.80
2023-05-09T07:39:31.036Z,92.32
2023-05-09T07:41:58.660Z,88.53
2023-05-09T07:44:28.402Z,89.30
2023-05-09T07:47:05.442Z,85.30
2023-05-09T07:49:35.914Z,88.85
2023-05-09T07:52:07.160Z,83.45
2023-05-09T07:54:35.901Z,88.22
2023-05-09T07:57:09.902Z,90.90
2023-05-09T07:59:37.738Z,83.82
2023-05-09T08:02:06.119Z,82.50
2023-05-09T08:04:42.447Z,79.30
2023-05-09T08:07:12.461Z,89.00
2023-05-09T08:09:40.107Z,84.97
2023-05-09T08:12:18.333Z,83.72
2023-05-09T08:14:47.241Z,77.50
2023-05-09T08:17:22.496Z,82.25
2023-05-09T08:19:50.234Z,79.38
2023-05-09T08:22:22.659Z,83.55
2023-05-09T08:24:50.291Z,83.63
2023-05-09T08:27:17.821Z,80.47
2023-05-09T08:29:45.848Z,80.65
2023-05-09T08:32:14.116Z,75.80
2023-05-09T08:34:46.673Z,80.97
2023-05-09T08:37:15.446Z,76.78
2023-05-09T08:39:45.102Z,76.97
2023-05-09T08:42:16.126Z,72.70
2023-05-09T08:44:43.836Z,76.95
2023-05-09T08:47:12.978Z,68.13
2023-05-09T08:49:41.553Z,71.78
2023-05-09T08:52:11.569Z,67.80
2023-05-09T08:54:39.507Z,63.05
2023-05-09T08:57:16.177Z,69.70
2023-05-09T08:59:46.607Z,69.55
2023-05-09T09:02:25.722Z,72.85
2023-05-09T09:04:55.331Z,65.63
2023-05-09T09:07:23.626Z,64.28
2023-05-09T09:09:51.347Z,59.72
2023-05-09T09:12:19.277Z,59.47
2023-05-09T09:14:50.358Z,52.92
2023-05-09T09:17:19.473Z,54.17
2023-05-09T09:19:50.222Z,51.78
2023-05-09T09:22:20.963Z,50.97
2023-05-09T09:24:48.765Z,51.45
2023-05-09T09:27:16.758Z,45.45
2023-05-09T09:29:44.304Z,59.42
2023-05-09T09:32:12.041Z,45.03
2023-05-09T09:34:39.878Z,49.28
2023-05-09T09:37:08.336Z,47.75
2023-05-09T09:39:36.143Z,48.33
2023-05-09T09:42:11.039Z,47.92
2023-05-09T09:44:38.796Z,47.88
2023-05-09T09:47:10.856Z,50.50
2023-05-09T09:49:38.432Z,50.25
2023-05-09T09:52:05.937Z,50.13
2023-05-09T09:54:33.739Z,49.45
2023-05-09T09:57:02.069Z,53.20
2023-05-09T09:59:29.592Z,55.70
2023-05-09T10:01:58.639Z,53.45
2023-05-09T10:04:29.178Z,51.25
2023-05-09T10:06:57.772Z,45.08
2023-05-09T10:09:26.249Z,42.70
2023-05-09T10:11:54.281Z,41.75
2023-05-09T10:14:23.365Z,45.17
2023-05-09T10:16:51.728Z,41.90
2023-05-09T10:19:20.904Z,47.60
2023-05-09T10:21:56.021Z,38.17
2023-05-09T10:24:28.689Z,43.42
2023-05-09T10:29:25.498Z,47.15
2023-05-09T10:31:55.557Z,44.25
2023-05-09T10:34:23.496Z,41.60
2023-05-09T10:36:51.066Z,44.83
2023-05-09T10:39:19.081Z,45.90
2023-05-09T10:41:49.923Z,41.55
2023-05-09T10:44:17.778Z,41.92
2023-05-09T10:46:46.129Z,45.47
2023-05-09T10:49:14.034Z,39.40
2023-05-09T10:51:42.061Z,43.25
2023-05-09T10:54:16.688Z,43.22
2023-05-09T10:56:44.542Z,39.17
2023-05-09T10:59:35.505Z,45.35
2023-05-09T11:02:03.646Z,38.78
2023-05-09T11:04:32.640Z,29.42
2023-05-09T11:07:00.912Z,26.13
2023-05-09T11:09:39.970Z,23.08
2023-05-09T11:12:16.881Z,22.63
2023-05-09T11:14:45.962Z,24.25
2023-05-09T11:17:30.390Z,25.13
2023-05-09T11:20:01.718Z,23.77
2023-05-09T11:22:32.554Z,23.58
2023-05-09T11:25:00.684Z,21.83
2023-05-09T11:27:29.081Z,20.85
2023-05-09T11:30:02.417Z,18.70
2023-05-09T11:32:35.538Z,20.77
2023-05-09T11:35:06.937Z,21.70
2023-05-09T11:38:06.081Z,22.33
2023-05-09T11:40:35.186Z,22.83
2023-05-09T11:43:02.902Z,25.80
2023-05-09T11:45:31.962Z,27.38
2023-05-09T11:48:00.855Z,25.83
2023-05-09T11:50:28.554Z,26.30
2023-05-09T11:52:58.684Z,26.58
2023-05-09T11:55:30.360Z,28.73
2023-05-09T11:58:08.229Z,27.20
2023-05-09T12:00:37.619Z,27.08
2023-05-09T12:03:07.874Z,24.05
2023-05-09T12:05:35.578Z,26.52
2023-05-09T12:08:06.284Z,21.85
2023-05-09T12:10:37.400Z,23.83
2023-05-09T12:13:11.463Z,24.05
2023-05-09T12:15:43.625Z,23.30
2023-05-09T12:18:24.357Z,25.90
2023-05-09T12:20:51.909Z,23.83
2023-05-09T12:23:20.854Z,20.45
2023-05-09T12:25:56.651Z,25.02
2023-05-09T12:28:24.570Z,22.08
2023-05-09T12:30:52.425Z,19.77
2023-05-09T12:33:20.120Z,23.58
2023-05-09T12:35:48.493Z,20.15
2023-05-09T12:38:21.406Z,21.85
2023-05-09T12:40:49.235Z,22.70
2023-05-09T12:43:18.645Z,18.90
2023-05-09T12:45:46.104Z,22.00
2023-05-09T12:48:14.581Z,21.70
2023-05-09T12:50:47.657Z,23.63
2023-05-09T12:53:23.915Z,22.85
2023-05-09T12:55:51.446Z,21.20
2023-05-09T12:58:18.903Z,19.10
2023-05-09T13:00:46.642Z,22.83
2023-05-09T13:03:21.159Z,20.90
2023-05-09T13:05:56.412Z,16.48
2023-05-09T13:08:23.921Z,15.30
2023-05-09T13:10:57.804Z,16.30
2023-05-09T13:13:31.869Z,18.58
2023-05-09T13:15:59.598Z,13.25
2023-05-09T13:18:27.439Z,12.07
2023-05-09T13:20:54.946Z,11.98
2023-05-09T13:23:22.401Z,9.27
2023-05-09T13:25:49.854Z,10.70
2023-05-09T13:28:17.273Z,11.52
2023-05-09T13:30:45.841Z,7.55
2023-05-09T13:33:25.306Z,8.65
2023-05-09T13:35:53.727Z,8.35
2023-05-09T13:38:21.230Z,9.32
2023-05-09T13:40:48.856Z,11.18
2023-05-09T13:43:16.283Z,10.73
2023-05-09T13:45:43.727Z,13.57
2023-05-09T13:48:11.852Z,10.57
2023-05-09T13:50:39.352Z,9.30
2023-05-09T13:53:06.919Z,9.30
2023-05-09T13:55:35.257Z,8.85
2023-05-09T13:58:02.864Z,7.82
2023-05-09T14:00:30.483Z,8.32
2023-05-09T14:02:58.015Z,8.38
2023-05-09T14:05:25.603Z,8.68
2023-05-09T14:07:53.165Z,9.27
2023-05-09T14:10:20.958Z,8.50
2023-05-09T14:12:48.676Z,8.88
2023-05-09T14:15:16.607Z,7.88
2023-05-09T14:17:44.184Z,7.10
2023-05-09T14:20:11.926Z,8.23
2023-05-09T14:22:39.407Z,7.72
2023-05-09T14:25:07.345Z,9.90
2023-05-09T14:27:37.816Z,8.80
2023-05-09T14:30:05.840Z,10.02
2023-05-09T14:32:33.589Z,10.18
2023-05-09T14:35:01.475Z,8.70
2023-05-09T14:37:29.466Z,8.10
2023-05-09T14:39:57.038Z,8.23
2023-05-09T14:42:24.517Z,15.73
2023-05-09T14:44:52.415Z,7.82
2023-05-09T14:47:20.030Z,7.00
2023-05-09T14:49:47.471Z,8.32
2023-05-09T14:52:17.683Z,6.70
2023-05-09T14:54:45.085Z,8.98
2023-05-09T14:57:12.506Z,8.38
2023-05-09T14:59:40.275Z,8.30
2023-05-09T15:02:10.685Z,8.52
2023-05-09T15:04:38.260Z,8.70
2023-05-09T15:07:07.087Z,8.75
2023-05-09T15:09:34.581Z,8.20
2023-05-09T15:12:02.335Z,12.18
2023-05-09T15:14:29.779Z,10.20
2023-05-09T15:17:00.042Z,8.20
2023-05-09T15:19:31.172Z,9.90
2023-05-09T15:21:59.536Z,9.05
2023-05-09T15:24:27.098Z,9.77
2023-05-09T15:26:54.615Z,8.50
2023-05-09T15:29:22.176Z,8.52
2023-05-09T15:31:49.662Z,10.60
2023-05-09T15:34:17.136Z,11.75
2023-05-09T15:36:44.604Z,8.38
2023-05-09T15:39:12.011Z,8.85
2023-05-09T15:41:39.599Z,9.73
2023-05-09T15:44:07.461Z,9.50
2023-05-09T15:46:35.351Z,7.35
2023-05-09T15:49:03.325Z,9.30
2023-05-09T15:51:31.084Z,8.75
2023-05-09T15:53:58.490Z,8.40
2023-05-09T15:56:26.064Z,7.75
2023-05-09T15:58:53.539Z,7.70
2023-05-09T16:01:21.366Z,7.45
2023-05-09T16:03:49.054Z,9.27
2023-05-09T16:06:16.627Z,7.82
2023-05-09T16:08:46.369Z,8.15
2023-05-09T16:13:46.565Z,7.97
2023-05-09T16:16:15.476Z,7.45
2023-05-09T16:18:43.142Z,8.45
2023-05-09T16:21:12.712Z,9.15
2023-05-09T16:23:40.235Z,7.18
2023-05-09T16:26:08.786Z,8.20
2023-05-09T16:28:36.259Z,7.53
2023-05-09T16:31:05.053Z,7.45
2023-05-09T16:33:37.804Z,8.40
2023-05-09T16:36:05.442Z,7.88
2023-05-09T16:38:32.923Z,8.32
2023-05-09T16:41:00.382Z,7.93
2023-05-09T16:43:27.940Z,8.27
2023-05-09T16:45:55.488Z,7.32
2023-05-09T16:48:23.136Z,8.32
2023-05-09T16:50:53.670Z,8.02
2023-05-09T16:53:23.013Z,8.45
2023-05-09T16:55:51.481Z,9.25
2023-05-09T16:58:18.878Z,7.70
2023-05-09T17:00:46.520Z,7.85
2023-05-09T17:03:14.267Z,8.73
2023-05-09T17:05:41.763Z,8.60
2023-05-09T17:08:09.278Z,8.27
2023-05-09T17:10:38.132Z,7.65
2023-05-09T17:13:08.884Z,8.20
2023-05-09T17:15:37.042Z,8.75
2023-05-09T17:18:05.462Z,9.10
2023-05-09T17:20:33.044Z,8.10
2023-05-09T17:23:00.675Z,8.20
2023-05-09T17:25:28.238Z,7.45
2023-05-09T17:27:55.872Z,8.70
2023-05-09T17:30:23.625Z,9.23
2023-05-09T17:32:54.053Z,8.05
2023-05-09T17:35:22.693Z,8.95
2023-05-09T17:37:50.152Z,8.80
2023-05-09T17:40:17.979Z,8.05
2023-05-09T17:42:45.629Z,8.45
2023-05-09T17:45:13.198Z,10.15
2023-05-09T17:47:40.837Z,8.88
2023-05-09T17:50:10.524Z,9.65
2023-05-09T17:52:38.053Z,8.52
2023-05-09T17:55:05.817Z,9.45
2023-05-09T17:57:33.300Z,8.98
2023-05-09T18:00:01.859Z,10.23
2023-05-09T18:02:29.534Z,9.50
2023-05-09T18:04:57.143Z,7.93
2023-05-09T18:07:25.342Z,11.07
2023-05-09T18:09:57.005Z,9.45
2023-05-09T18:12:25.766Z,10.98
2023-05-09T18:14:53.517Z,9.52
2023-05-09T18:17:27.700Z,9.77
2023-05-09T18:19:55.931Z,8.63
2023-05-09T18:22:30.874Z,8.57
2023-05-09T18:24:59.010Z,9.05
2023-05-09T18:27:27.380Z,8.88
2023-05-09T18:29:55.193Z,11.52
2023-05-09T18:32:22.882Z,8.20
2023-05-09T18:34:50.521Z,10.63
2023-05-09T18:37:18.838Z,9.18
2023-05-09T18:39:46.311Z,10.52
2023-05-09T18:42:16.199Z,9.73
2023-05-09T18:44:44.314Z,10.55
2023-05-09T18:47:12.166Z,10.23
2023-05-09T18:49:39.820Z,10.82
2023-05-09T18:52:07.346Z,11.48
2023-05-09T18:54:36.591Z,11.48
2023-05-09T18:57:04.067Z,11.00
2023-05-09T18:59:31.947Z,10.23
2023-05-09T19:01:59.464Z,9.45
2023-05-09T19:04:27.230Z,8.35
2023-05-09T19:06:54.803Z,8.70
2023-05-09T19:09:22.273Z,6.97
2023-05-09T19:11:49.790Z,6.03
2023-05-09T19:14:17.226Z,6.97
2023-05-09T19:16:44.816Z,7.22
2023-05-09T19:19:15.833Z,7.07
2023-05-09T19:21:43.709Z,6.25
2023-05-09T19:24:11.262Z,6.88
2023-05-09T19:26:38.798Z,6.45
2023-05-09T19:29:08.282Z,8.75
2023-05-09T19:31:37.190Z,7.47
2023-05-09T19:34:04.643Z,8.32
2023-05-09T19:36:32.239Z,10.98
2023-05-09T19:39:00.265Z,10.07
2023-05-09T19:41:27.831Z,8.43
2023-05-09T19:43:55.363Z,9.95
2023-05-09T19:46:23.851Z,10.15
2023-05-09T19:48:51.372Z,9.30
2023-05-09T19:51:18.939Z,10.43
2023-05-09T19:53:47.099Z,10.35
2023-05-09T19:56:16.838Z,13.52
2023-05-09T19:58:44.622Z,11.25
2023-05-09T20:01:12.309Z,11.82
2023-05-09T20:03:42.270Z,14.63
2023-05-09T20:06:14.607Z,13.50
2023-05-09T20:08:42.122Z,12.32
2023-05-09T20:11:09.669Z,11.40
2023-05-09T20:13:37.094Z,12.15
2023-05-09T20:16:05.627Z,13.15
2023-05-09T20:18:35.831Z,13.68
2023-05-09T20:21:04.043Z,19.35
2023-05-09T20:23:37.730Z,12.98
2023-05-09T20:26:05.312Z,13.65
2023-05-09T20:28:33.089Z,14.68
2023-05-09T20:31:00.711Z,13.35
2023-05-09T20:33:28.165Z,14.93
2023-05-09T20:36:21.410Z,13.60
2023-05-09T20:41:20.794Z,12.27
2023-05-09T20:43:48.389Z,17.13
2023-05-09T20:46:16.243Z,16.48
2023-05-09T20:48:44.421Z,14.07
2023-05-09T20:51:14.163Z,9.07
2023-05-09T20:53:41.620Z,12.25
2023-05-09T20:56:11.806Z,10.85
2023-05-09T20:58:39.269Z,7.65
2023-05-09T21:01:06.789Z,8.63
2023-05-09T21:03:37.804Z,7.97
2023-05-09T21:06:07.683Z,7.93
2023-05-09T21:08:35.170Z,7.97
2023-05-09T21:11:02.663Z,9.07
2023-05-09T21:13:33.489Z,12.93
2023-05-09T21:16:00.999Z,11.00
2023-05-09T21:18:28.495Z,11.07
2023-05-09T21:20:56.042Z,10.57
2023-05-09T21:23:23.590Z,11.77
2023-05-09T21:28:34.724Z,11.23
2023-05-09T21:31:02.322Z,15.63
2023-05-09T21:33:30.885Z,14.02
2023-05-09T21:36:08.207Z,16.27
2023-05-09T21:38:35.675Z,17.60
2023-05-09T21:41:05.380Z,16.17
2023-05-09T21:43:41.688Z,16.17
2023-05-09T21:46:15.218Z,16.92
2023-05-09T21:48:43.715Z,16.90
2023-05-09T21:51:11.526Z,18.50
2023-05-09T21:53:39.234Z,17.95
2023-05-09T21:56:15.406Z,19.50
2023-05-09T21:58:42.941Z,19.10
2023-05-09T22:01:12.126Z,19.42
2023-05-09T22:03:40.709Z,20.08
2023-05-09T22:06:09.487Z,19.95
2023-05-09T22:08:37.197Z,20.85
2023-05-09T22:11:06.488Z,20.95
2023-05-09T22:13:36.527Z,22.90
2023-05-09T22:16:04.702Z,21.85
2023-05-09T22:18:32.340Z,24.23
2023-05-09T22:21:08.472Z,23.70
2023-05-09T22:23:38.440Z,24.38
2023-05-09T22:26:25.976Z,24.80
2023-05-09T22:28:54.464Z,25.13
2023-05-09T22:31:24.739Z,28.70
2023-05-09T22:33:52.512Z,27.30
2023-05-09T22:36:20.100Z,27.60
2023-05-09T22:38:58.936Z,27.70
2023-05-09T22:41:26.391Z,33.63
2023-05-09T22:44:04.296Z,30.02
2023-05-09T22:46:32.177Z,30.98
2023-05-09T22:49:10.044Z,31.17
2023-05-09T22:51:37.623Z,26.38
2023-05-09T22:54:05.258Z,25.48
2023-05-09T22:56:39.296Z,27.70
2023-05-09T22:59:07.131Z,34.92
2023-05-09T23:01:34.721Z,33.70
2023-05-09T23:04:05.748Z,45.70
2023-05-09T23:06:35.678Z,41.70
2023-05-09T23:09:03.198Z,40.40
2023-05-09T23:11:42.328Z,38.38
2023-05-09T23:14:10.552Z,50.90
2023-05-09T23:16:39.133Z,41.88
2023-05-09T23:19:07.664Z,35.13
2023-05-09T23:21:39.842Z,38.13
2023-05-09T23:24:18.600Z,39.42
2023-05-09T23:26:46.052Z,28.30
2023-05-09T23:29:13.492Z,26.27
2023-05-09T23:31:43.179Z,23.40
2023-05-09T23:34:13.233Z,23.85
2023-05-09T23:36:40.724Z,17.33
2023-05-09T23:39:08.199Z,19.35
2023-05-09T23:41:36.180Z,17.88
2023-05-09T23:44:07.818Z,14.18
2023-05-09T23:46:35.555Z,15.00
2023-05-09T23:49:03.985Z,14.07
2023-05-09T23:51:36.694Z,13.30
2023-05-09T23:54:06.526Z,12.90
2023-05-09T23:56:34.063Z,10.60
2023-05-09T23:59:08.688Z,10.27
